sensor_id;sensor_type;location;lat;lon;timestamp;P1;durP1;ratioP1;P2;durP2;ratioP2
58137;SDS011;43955;47.362;18.930;2023-04-19T00:01:01;6.28;;;2.55;;
58137;SDS011;43955;47.362;18.930;2023-04-19T00:03:29;4.57;;;2.35;;
58137;SDS011;43955;47.362;18.930;2023-04-19T00:05:57;5.60;;;2.30;;
58137;SDS011;43955;47.362;18.930;2023-04-19T00:08:25;4.82;;;2.47;;
58137;SDS011;43955;47.362;18.930;2023-04-19T00:10:52;5.22;;;2.58;;
58137;SDS011;43955;47.362;18.930;2023-04-19T00:13:19;5.68;;;2.70;;
58137;SDS011;43955;47.362;18.930;2023-04-19T00:15:47;4.65;;;2.20;;
58137;SDS011;43955;47.362;18.930;2023-04-19T00:18:15;3.70;;;2.60;;
58137;SDS011;43955;47.362;18.930;2023-04-19T00:20:42;5.03;;;2.33;;
58137;SDS011;43955;47.362;18.930;2023-04-19T00:23:09;5.70;;;2.40;;
58137;SDS011;43955;47.362;18.930;2023-04-19T00:25:37;5.12;;;2.78;;
58137;SDS011;43955;47.362;18.930;2023-04-19T00:28:04;4.85;;;2.53;;
58137;SDS011;43955;47.362;18.930;2023-04-19T00:30:31;4.65;;;2.58;;
58137;SDS011;43955;47.362;18.930;2023-04-19T00:32:59;3.70;;;2.22;;
58137;SDS011;43955;47.362;18.930;2023-04-19T00:35:26;3.75;;;1.90;;
58137;SDS011;43955;47.362;18.930;2023-04-19T00:37:53;4.25;;;2.50;;
58137;SDS011;43955;47.362;18.930;2023-04-19T00:40:21;4.50;;;2.50;;
58137;SDS011;43955;47.362;18.930;2023-04-19T00:42:48;2.90;;;2.10;;
58137;SDS011;43955;47.362;18.930;2023-04-19T00:45:15;5.85;;;2.70;;
58137;SDS011;43955;47.362;18.930;2023-04-19T00:47:43;6.57;;;3.08;;
58137;SDS011;43955;47.362;18.930;2023-04-19T00:50:10;9.27;;;2.15;;
58137;SDS011;43955;47.362;18.930;2023-04-19T00:52:38;5.70;;;2.35;;
58137;SDS011;43955;47.362;18.930;2023-04-19T00:55:06;6.12;;;2.60;;
58137;SDS011;43955;47.362;18.930;2023-04-19T00:57:33;2.75;;;2.10;;
58137;SDS011;43955;47.362;18.930;2023-04-19T01:00:01;4.60;;;2.28;;
58137;SDS011;43955;47.362;18.930;2023-04-19T01:02:30;5.25;;;2.45;;
58137;SDS011;43955;47.362;18.930;2023-04-19T01:04:57;4.37;;;2.70;;
58137;SDS011;43955;47.362;18.930;2023-04-19T01:07:24;3.92;;;1.92;;
58137;SDS011;43955;47.362;18.930;2023-04-19T01:09:52;3.12;;;2.00;;
58137;SDS011;43955;47.362;18.930;2023-04-19T01:12:20;3.33;;;2.03;;
58137;SDS011;43955;47.362;18.930;2023-04-19T01:14:49;5.47;;;2.60;;
58137;SDS011;43955;47.362;18.930;2023-04-19T01:17:17;4.65;;;2.30;;
58137;SDS011;43955;47.362;18.930;2023-04-19T01:19:45;3.85;;;2.05;;
58137;SDS011;43955;47.362;18.930;2023-04-19T01:22:18;3.90;;;2.28;;
58137;SDS011;43955;47.362;18.930;2023-04-19T01:24:47;4.05;;;2.22;;
58137;SDS011;43955;47.362;18.930;2023-04-19T01:27:14;4.22;;;2.45;;
58137;SDS011;43955;47.362;18.930;2023-04-19T01:29:43;4.03;;;2.70;;
58137;SDS011;43955;47.362;18.930;2023-04-19T01:32:10;6.57;;;2.50;;
58137;SDS011;43955;47.362;18.930;2023-04-19T01:34:39;4.80;;;2.40;;
58137;SDS011;43955;47.362;18.930;2023-04-19T01:37:07;2.90;;;1.87;;
58137;SDS011;43955;47.362;18.930;2023-04-19T01:39:35;4.05;;;2.33;;
58137;SDS011;43955;47.362;18.930;2023-04-19T01:42:02;6.37;;;2.90;;
58137;SDS011;43955;47.362;18.930;2023-04-19T01:44:30;3.75;;;2.53;;
58137;SDS011;43955;47.362;18.930;2023-04-19T01:46:58;4.53;;;2.10;;
58137;SDS011;43955;47.362;18.930;2023-04-19T01:49:26;4.78;;;2.50;;
58137;SDS011;43955;47.362;18.930;2023-04-19T01:51:53;3.90;;;2.25;;
58137;SDS011;43955;47.362;18.930;2023-04-19T01:54:20;5.62;;;2.17;;
58137;SDS011;43955;47.362;18.930;2023-04-19T01:56:49;5.72;;;2.35;;
58137;SDS011;43955;47.362;18.930;2023-04-19T01:59:16;15.00;;;3.60;;
58137;SDS011;43955;47.362;18.930;2023-04-19T02:01:44;6.00;;;2.47;;
58137;SDS011;43955;47.362;18.930;2023-04-19T02:04:11;20.73;;;4.97;;
58137;SDS011;43955;47.362;18.930;2023-04-19T02:06:39;26.12;;;3.67;;
58137;SDS011;43955;47.362;18.930;2023-04-19T02:09:06;11.85;;;2.72;;
58137;SDS011;43955;47.362;18.930;2023-04-19T02:11:34;5.68;;;2.42;;
58137;SDS011;43955;47.362;18.930;2023-04-19T02:14:01;5.60;;;2.47;;
58137;SDS011;43955;47.362;18.930;2023-04-19T02:16:28;5.37;;;2.62;;
58137;SDS011;43955;47.362;18.930;2023-04-19T02:18:56;5.97;;;2.72;;
58137;SDS011;43955;47.362;18.930;2023-04-19T02:21:24;5.60;;;2.80;;
58137;SDS011;43955;47.362;18.930;2023-04-19T02:23:51;5.05;;;2.65;;
58137;SDS011;43955;47.362;18.930;2023-04-19T02:26:19;6.15;;;3.00;;
58137;SDS011;43955;47.362;18.930;2023-04-19T02:28:46;8.23;;;3.08;;
58137;SDS011;43955;47.362;18.930;2023-04-19T02:31:13;6.60;;;3.08;;
58137;SDS011;43955;47.362;18.930;2023-04-19T02:33:42;5.25;;;2.78;;
58137;SDS011;43955;47.362;18.930;2023-04-19T02:36:10;6.53;;;2.65;;
58137;SDS011;43955;47.362;18.930;2023-04-19T02:38:37;6.62;;;3.12;;
58137;SDS011;43955;47.362;18.930;2023-04-19T02:41:05;6.45;;;2.70;;
58137;SDS011;43955;47.362;18.930;2023-04-19T02:43:32;9.25;;;3.80;;
58137;SDS011;43955;47.362;18.930;2023-04-19T02:45:59;4.93;;;3.22;;
58137;SDS011;43955;47.362;18.930;2023-04-19T02:48:27;6.40;;;3.50;;
58137;SDS011;43955;47.362;18.930;2023-04-19T02:50:54;6.15;;;3.15;;
58137;SDS011;43955;47.362;18.930;2023-04-19T02:53:22;6.07;;;3.42;;
58137;SDS011;43955;47.362;18.930;2023-04-19T02:55:49;6.47;;;3.40;;
58137;SDS011;43955;47.362;18.930;2023-04-19T02:58:17;6.43;;;3.60;;
58137;SDS011;43955;47.362;18.930;2023-04-19T03:00:45;6.05;;;3.25;;
58137;SDS011;43955;47.362;18.930;2023-04-19T03:03:13;6.45;;;3.67;;
58137;SDS011;43955;47.362;18.930;2023-04-19T03:05:40;5.40;;;3.25;;
58137;SDS011;43955;47.362;18.930;2023-04-19T03:08:07;8.23;;;3.20;;
58137;SDS011;43955;47.362;18.930;2023-04-19T03:10:37;6.65;;;3.58;;
58137;SDS011;43955;47.362;18.930;2023-04-19T03:13:04;7.93;;;3.35;;
58137;SDS011;43955;47.362;18.930;2023-04-19T03:15:31;7.50;;;3.92;;
58137;SDS011;43955;47.362;18.930;2023-04-19T03:17:58;5.37;;;3.87;;
58137;SDS011;43955;47.362;18.930;2023-04-19T03:20:26;7.95;;;3.70;;
58137;SDS011;43955;47.362;18.930;2023-04-19T03:22:55;6.10;;;3.35;;
58137;SDS011;43955;47.362;18.930;2023-04-19T03:25:22;6.03;;;3.40;;
58137;SDS011;43955;47.362;18.930;2023-04-19T03:27:51;7.43;;;3.20;;
58137;SDS011;43955;47.362;18.930;2023-04-19T03:30:19;7.32;;;3.20;;
58137;SDS011;43955;47.362;18.930;2023-04-19T03:32:46;13.32;;;3.37;;
58137;SDS011;43955;47.362;18.930;2023-04-19T03:35:14;7.35;;;2.87;;
58137;SDS011;43955;47.362;18.930;2023-04-19T03:37:42;7.37;;;2.70;;
58137;SDS011;43955;47.362;18.930;2023-04-19T03:40:09;18.58;;;3.75;;
58137;SDS011;43955;47.362;18.930;2023-04-19T03:42:38;6.57;;;3.35;;
58137;SDS011;43955;47.362;18.930;2023-04-19T03:45:05;6.62;;;3.10;;
58137;SDS011;43955;47.362;18.930;2023-04-19T03:47:33;7.03;;;3.25;;
58137;SDS011;43955;47.362;18.930;2023-04-19T03:50:01;7.60;;;3.25;;
58137;SDS011;43955;47.362;18.930;2023-04-19T03:52:29;5.72;;;3.08;;
58137;SDS011;43955;47.362;18.930;2023-04-19T03:54:57;6.93;;;2.92;;
58137;SDS011;43955;47.362;18.930;2023-04-19T03:57:25;4.75;;;2.55;;
58137;SDS011;43955;47.362;18.930;2023-04-19T03:59:52;6.82;;;3.28;;
58137;SDS011;43955;47.362;18.930;2023-04-19T04:02:19;11.85;;;3.55;;
58137;SDS011;43955;47.362;18.930;2023-04-19T04:04:51;5.90;;;2.87;;
58137;SDS011;43955;47.362;18.930;2023-04-19T04:07:20;6.70;;;3.22;;
58137;SDS011;43955;47.362;18.930;2023-04-19T04:09:49;5.95;;;2.97;;
58137;SDS011;43955;47.362;18.930;2023-04-19T04:12:17;8.07;;;4.05;;
58137;SDS011;43955;47.362;18.930;2023-04-19T04:14:44;5.18;;;2.90;;
58137;SDS011;43955;47.362;18.930;2023-04-19T04:17:13;4.12;;;2.80;;
58137;SDS011;43955;47.362;18.930;2023-04-19T04:19:41;5.45;;;2.97;;
58137;SDS011;43955;47.362;18.930;2023-04-19T04:22:08;5.10;;;2.62;;
58137;SDS011;43955;47.362;18.930;2023-04-19T04:24:38;5.90;;;3.08;;
58137;SDS011;43955;47.362;18.930;2023-04-19T04:27:09;5.80;;;3.20;;
58137;SDS011;43955;47.362;18.930;2023-04-19T04:29:38;8.60;;;3.45;;
58137;SDS011;43955;47.362;18.930;2023-04-19T04:32:06;8.32;;;3.80;;
58137;SDS011;43955;47.362;18.930;2023-04-19T04:34:37;6.62;;;3.00;;
58137;SDS011;43955;47.362;18.930;2023-04-19T04:37:04;6.78;;;2.90;;
58137;SDS011;43955;47.362;18.930;2023-04-19T04:39:33;5.82;;;2.80;;
58137;SDS011;43955;47.362;18.930;2023-04-19T04:42:05;6.35;;;3.17;;
58137;SDS011;43955;47.362;18.930;2023-04-19T04:44:35;8.80;;;3.20;;
58137;SDS011;43955;47.362;18.930;2023-04-19T04:47:03;6.32;;;2.85;;
58137;SDS011;43955;47.362;18.930;2023-04-19T04:49:32;5.57;;;2.70;;
58137;SDS011;43955;47.362;18.930;2023-04-19T04:51:59;8.65;;;3.72;;
58137;SDS011;43955;47.362;18.930;2023-04-19T04:54:27;8.43;;;4.10;;
58137;SDS011;43955;47.362;18.930;2023-04-19T04:56:55;7.35;;;3.67;;
58137;SDS011;43955;47.362;18.930;2023-04-19T04:59:23;28.08;;;6.68;;
58137;SDS011;43955;47.362;18.930;2023-04-19T05:01:50;26.60;;;4.70;;
58137;SDS011;43955;47.362;18.930;2023-04-19T05:04:18;6.82;;;3.37;;
58137;SDS011;43955;47.362;18.930;2023-04-19T05:06:45;10.73;;;3.40;;
58137;SDS011;43955;47.362;18.930;2023-04-19T05:09:15;8.25;;;2.70;;
58137;SDS011;43955;47.362;18.930;2023-04-19T05:11:44;5.43;;;2.62;;
58137;SDS011;43955;47.362;18.930;2023-04-19T05:14:11;5.00;;;2.45;;
58137;SDS011;43955;47.362;18.930;2023-04-19T05:16:39;9.55;;;3.58;;
58137;SDS011;43955;47.362;18.930;2023-04-19T05:19:06;11.00;;;5.37;;
58137;SDS011;43955;47.362;18.930;2023-04-19T05:21:34;7.80;;;3.22;;
58137;SDS011;43955;47.362;18.930;2023-04-19T05:24:02;8.65;;;3.97;;
58137;SDS011;43955;47.362;18.930;2023-04-19T05:26:31;5.37;;;3.50;;
58137;SDS011;43955;47.362;18.930;2023-04-19T05:28:59;6.57;;;2.65;;
58137;SDS011;43955;47.362;18.930;2023-04-19T05:31:26;5.30;;;2.83;;
58137;SDS011;43955;47.362;18.930;2023-04-19T05:33:54;5.70;;;2.85;;
58137;SDS011;43955;47.362;18.930;2023-04-19T05:36:21;4.20;;;2.80;;
58137;SDS011;43955;47.362;18.930;2023-04-19T05:38:50;11.07;;;3.35;;
58137;SDS011;43955;47.362;18.930;2023-04-19T05:41:19;6.30;;;3.08;;
58137;SDS011;43955;47.362;18.930;2023-04-19T05:43:46;8.70;;;2.97;;
58137;SDS011;43955;47.362;18.930;2023-04-19T05:46:14;6.68;;;3.12;;
58137;SDS011;43955;47.362;18.930;2023-04-19T05:48:41;5.90;;;3.22;;
58137;SDS011;43955;47.362;18.930;2023-04-19T05:51:09;8.82;;;3.37;;
58137;SDS011;43955;47.362;18.930;2023-04-19T05:53:37;7.45;;;3.12;;
58137;SDS011;43955;47.362;18.930;2023-04-19T05:56:05;8.40;;;3.55;;
58137;SDS011;43955;47.362;18.930;2023-04-19T05:58:32;6.37;;;2.92;;
58137;SDS011;43955;47.362;18.930;2023-04-19T06:01:00;5.93;;;3.20;;
58137;SDS011;43955;47.362;18.930;2023-04-19T06:03:28;6.47;;;3.37;;
58137;SDS011;43955;47.362;18.930;2023-04-19T06:05:58;5.97;;;3.45;;
58137;SDS011;43955;47.362;18.930;2023-04-19T06:08:26;7.95;;;2.90;;
58137;SDS011;43955;47.362;18.930;2023-04-19T06:10:53;6.57;;;3.78;;
58137;SDS011;43955;47.362;18.930;2023-04-19T06:13:22;4.60;;;2.83;;
58137;SDS011;43955;47.362;18.930;2023-04-19T06:15:51;6.10;;;3.25;;
58137;SDS011;43955;47.362;18.930;2023-04-19T06:18:18;7.60;;;3.33;;
58137;SDS011;43955;47.362;18.930;2023-04-19T06:20:47;5.68;;;3.37;;
58137;SDS011;43955;47.362;18.930;2023-04-19T06:23:14;10.90;;;3.78;;
58137;SDS011;43955;47.362;18.930;2023-04-19T06:25:43;9.60;;;3.85;;
58137;SDS011;43955;47.362;18.930;2023-04-19T06:28:10;7.30;;;3.28;;
58137;SDS011;43955;47.362;18.930;2023-04-19T06:30:37;7.80;;;4.05;;
58137;SDS011;43955;47.362;18.930;2023-04-19T06:33:05;8.18;;;3.83;;
58137;SDS011;43955;47.362;18.930;2023-04-19T06:35:32;5.25;;;3.40;;
58137;SDS011;43955;47.362;18.930;2023-04-19T06:37:59;7.30;;;3.58;;
58137;SDS011;43955;47.362;18.930;2023-04-19T06:40:27;10.30;;;3.60;;
58137;SDS011;43955;47.362;18.930;2023-04-19T06:42:55;6.07;;;3.50;;
58137;SDS011;43955;47.362;18.930;2023-04-19T06:45:25;5.72;;;3.60;;
58137;SDS011;43955;47.362;18.930;2023-04-19T06:47:53;9.25;;;3.58;;
58137;SDS011;43955;47.362;18.930;2023-04-19T06:50:20;7.12;;;3.60;;
58137;SDS011;43955;47.362;18.930;2023-04-19T06:52:47;6.47;;;4.35;;
58137;SDS011;43955;47.362;18.930;2023-04-19T06:55:15;6.60;;;3.67;;
58137;SDS011;43955;47.362;18.930;2023-04-19T06:57:42;6.65;;;3.47;;
58137;SDS011;43955;47.362;18.930;2023-04-19T07:00:09;5.47;;;3.30;;
58137;SDS011;43955;47.362;18.930;2023-04-19T07:02:37;7.32;;;3.03;;
58137;SDS011;43955;47.362;18.930;2023-04-19T07:05:06;5.43;;;3.22;;
58137;SDS011;43955;47.362;18.930;2023-04-19T07:07:34;5.28;;;3.30;;
58137;SDS011;43955;47.362;18.930;2023-04-19T07:10:04;6.82;;;3.50;;
58137;SDS011;43955;47.362;18.930;2023-04-19T07:12:31;5.43;;;2.90;;
58137;SDS011;43955;47.362;18.930;2023-04-19T07:14:59;6.40;;;3.08;;
58137;SDS011;43955;47.362;18.930;2023-04-19T07:17:27;6.75;;;2.80;;
58137;SDS011;43955;47.362;18.930;2023-04-19T07:19:54;5.45;;;2.67;;
58137;SDS011;43955;47.362;18.930;2023-04-19T07:22:22;5.93;;;2.80;;
58137;SDS011;43955;47.362;18.930;2023-04-19T07:24:49;3.70;;;2.45;;
58137;SDS011;43955;47.362;18.930;2023-04-19T07:27:17;3.53;;;2.50;;
58137;SDS011;43955;47.362;18.930;2023-04-19T07:29:45;5.57;;;2.28;;
58137;SDS011;43955;47.362;18.930;2023-04-19T07:32:12;3.58;;;2.00;;
58137;SDS011;43955;47.362;18.930;2023-04-19T07:34:41;5.90;;;2.65;;
58137;SDS011;43955;47.362;18.930;2023-04-19T07:37:09;8.30;;;3.00;;
58137;SDS011;43955;47.362;18.930;2023-04-19T07:39:37;9.63;;;4.15;;
58137;SDS011;43955;47.362;18.930;2023-04-19T07:42:05;8.35;;;3.45;;
58137;SDS011;43955;47.362;18.930;2023-04-19T07:44:32;12.50;;;4.32;;
58137;SDS011;43955;47.362;18.930;2023-04-19T07:46:59;12.43;;;4.78;;
58137;SDS011;43955;47.362;18.930;2023-04-19T07:49:27;9.65;;;5.40;;
58137;SDS011;43955;47.362;18.930;2023-04-19T07:52:00;11.70;;;6.25;;
58137;SDS011;43955;47.362;18.930;2023-04-19T07:54:27;12.30;;;5.40;;
58137;SDS011;43955;47.362;18.930;2023-04-19T07:56:55;9.48;;;4.60;;
58137;SDS011;43955;47.362;18.930;2023-04-19T07:59:25;8.15;;;3.58;;
58137;SDS011;43955;47.362;18.930;2023-04-19T08:01:52;9.45;;;4.25;;
58137;SDS011;43955;47.362;18.930;2023-04-19T08:04:19;7.90;;;3.90;;
58137;SDS011;43955;47.362;18.930;2023-04-19T08:06:49;6.30;;;3.37;;
58137;SDS011;43955;47.362;18.930;2023-04-19T08:09:16;17.73;;;3.55;;
58137;SDS011;43955;47.362;18.930;2023-04-19T08:11:43;6.10;;;3.37;;
58137;SDS011;43955;47.362;18.930;2023-04-19T08:14:10;7.68;;;4.12;;
58137;SDS011;43955;47.362;18.930;2023-04-19T08:16:56;6.60;;;3.15;;
58137;SDS011;43955;47.362;18.930;2023-04-19T08:19:44;5.28;;;2.85;;
58137;SDS011;43955;47.362;18.930;2023-04-19T08:22:11;12.40;;;3.65;;
58137;SDS011;43955;47.362;18.930;2023-04-19T08:24:38;7.45;;;3.25;;
58137;SDS011;43955;47.362;18.930;2023-04-19T08:27:05;7.32;;;2.75;;
58137;SDS011;43955;47.362;18.930;2023-04-19T08:29:33;9.82;;;3.22;;
58137;SDS011;43955;47.362;18.930;2023-04-19T08:32:00;4.40;;;2.58;;
58137;SDS011;43955;47.362;18.930;2023-04-19T08:34:27;5.53;;;3.30;;
58137;SDS011;43955;47.362;18.930;2023-04-19T08:36:55;8.80;;;4.00;;
58137;SDS011;43955;47.362;18.930;2023-04-19T08:39:30;7.43;;;3.65;;
58137;SDS011;43955;47.362;18.930;2023-04-19T08:42:02;8.63;;;4.00;;
58137;SDS011;43955;47.362;18.930;2023-04-19T08:44:44;8.77;;;4.20;;
58137;SDS011;43955;47.362;18.930;2023-04-19T08:47:32;7.50;;;4.43;;
58137;SDS011;43955;47.362;18.930;2023-04-19T08:50:03;8.07;;;4.37;;
58137;SDS011;43955;47.362;18.930;2023-04-19T08:52:51;9.60;;;5.35;;
58137;SDS011;43955;47.362;18.930;2023-04-19T08:55:28;12.95;;;5.03;;
58137;SDS011;43955;47.362;18.930;2023-04-19T08:57:57;9.25;;;4.87;;
58137;SDS011;43955;47.362;18.930;2023-04-19T09:00:24;9.75;;;4.57;;
58137;SDS011;43955;47.362;18.930;2023-04-19T09:02:51;7.78;;;4.65;;
58137;SDS011;43955;47.362;18.930;2023-04-19T09:05:22;8.05;;;5.25;;
58137;SDS011;43955;47.362;18.930;2023-04-19T09:07:50;9.65;;;4.70;;
58137;SDS011;43955;47.362;18.930;2023-04-19T09:10:18;7.65;;;4.10;;
58137;SDS011;43955;47.362;18.930;2023-04-19T09:13:03;7.93;;;4.37;;
58137;SDS011;43955;47.362;18.930;2023-04-19T09:15:35;11.82;;;5.30;;
58137;SDS011;43955;47.362;18.930;2023-04-19T09:18:04;8.15;;;5.25;;
58137;SDS011;43955;47.362;18.930;2023-04-19T09:20:37;9.95;;;5.05;;
58137;SDS011;43955;47.362;18.930;2023-04-19T09:23:06;11.32;;;5.87;;
58137;SDS011;43955;47.362;18.930;2023-04-19T09:25:34;11.30;;;5.40;;
58137;SDS011;43955;47.362;18.930;2023-04-19T09:28:22;12.25;;;5.43;;
58137;SDS011;43955;47.362;18.930;2023-04-19T09:30:50;11.10;;;5.50;;
58137;SDS011;43955;47.362;18.930;2023-04-19T09:33:35;17.37;;;5.18;;
58137;SDS011;43955;47.362;18.930;2023-04-19T09:36:06;8.55;;;5.35;;
58137;SDS011;43955;47.362;18.930;2023-04-19T09:38:46;10.35;;;4.97;;
58137;SDS011;43955;47.362;18.930;2023-04-19T09:41:15;7.53;;;4.30;;
58137;SDS011;43955;47.362;18.930;2023-04-19T09:43:45;10.25;;;5.70;;
58137;SDS011;43955;47.362;18.930;2023-04-19T09:46:34;10.13;;;5.82;;
58137;SDS011;43955;47.362;18.930;2023-04-19T09:51:46;10.70;;;6.00;;
58137;SDS011;43955;47.362;18.930;2023-04-19T09:54:14;11.63;;;6.03;;
58137;SDS011;43955;47.362;18.930;2023-04-19T09:56:42;9.35;;;5.57;;
58137;SDS011;43955;47.362;18.930;2023-04-19T09:59:11;10.63;;;6.00;;
58137;SDS011;43955;47.362;18.930;2023-04-19T10:01:47;11.82;;;6.53;;
58137;SDS011;43955;47.362;18.930;2023-04-19T10:04:22;8.45;;;5.72;;
58137;SDS011;43955;47.362;18.930;2023-04-19T10:07:10;11.43;;;6.43;;
58137;SDS011;43955;47.362;18.930;2023-04-19T10:09:41;7.47;;;5.70;;
58137;SDS011;43955;47.362;18.930;2023-04-19T10:12:21;11.50;;;6.80;;
58137;SDS011;43955;47.362;18.930;2023-04-19T10:15:10;12.02;;;6.80;;
58137;SDS011;43955;47.362;18.930;2023-04-19T10:17:40;12.52;;;6.70;;
58137;SDS011;43955;47.362;18.930;2023-04-19T10:20:08;10.45;;;7.12;;
58137;SDS011;43955;47.362;18.930;2023-04-19T10:22:38;10.57;;;6.32;;
58137;SDS011;43955;47.362;18.930;2023-04-19T10:25:09;11.05;;;6.87;;
58137;SDS011;43955;47.362;18.930;2023-04-19T10:27:42;18.35;;;7.80;;
58137;SDS011;43955;47.362;18.930;2023-04-19T10:30:21;12.37;;;8.40;;
58137;SDS011;43955;47.362;18.930;2023-04-19T10:32:53;13.90;;;8.85;;
58137;SDS011;43955;47.362;18.930;2023-04-19T10:35:23;15.38;;;8.60;;
58137;SDS011;43955;47.362;18.930;2023-04-19T10:43:18;18.23;;;8.90;;
58137;SDS011;43955;47.362;18.930;2023-04-19T10:45:46;14.23;;;8.18;;
58137;SDS011;43955;47.362;18.930;2023-04-19T10:53:49;11.23;;;7.28;;
58137;SDS011;43955;47.362;18.930;2023-04-19T10:56:55;23.20;;;8.23;;
58137;SDS011;43955;47.362;18.930;2023-04-19T10:59:10;12.82;;;7.70;;
58137;SDS011;43955;47.362;18.930;2023-04-19T11:01:42;17.60;;;7.87;;
58137;SDS011;43955;47.362;18.930;2023-04-19T11:04:11;11.50;;;8.50;;
58137;SDS011;43955;47.362;18.930;2023-04-19T11:09:27;14.27;;;7.93;;
58137;SDS011;43955;47.362;18.930;2023-04-19T11:11:58;12.98;;;7.30;;
58137;SDS011;43955;47.362;18.930;2023-04-19T11:14:44;13.20;;;8.40;;
58137;SDS011;43955;47.362;18.930;2023-04-19T11:22:30;14.70;;;6.70;;
58137;SDS011;43955;47.362;18.930;2023-04-19T11:25:19;9.20;;;6.22;;
58137;SDS011;43955;47.362;18.930;2023-04-19T11:27:49;10.13;;;5.95;;
58137;SDS011;43955;47.362;18.930;2023-04-19T11:30:19;8.80;;;5.85;;
58137;SDS011;43955;47.362;18.930;2023-04-19T11:32:51;13.32;;;6.45;;
58137;SDS011;43955;47.362;18.930;2023-04-19T11:35:20;9.52;;;6.62;;
58137;SDS011;43955;47.362;18.930;2023-04-19T11:37:48;11.43;;;6.57;;
58137;SDS011;43955;47.362;18.930;2023-04-19T11:40:16;12.63;;;7.65;;
58137;SDS011;43955;47.362;18.930;2023-04-19T11:42:45;11.45;;;7.30;;
58137;SDS011;43955;47.362;18.930;2023-04-19T11:45:23;14.00;;;7.05;;
58137;SDS011;43955;47.362;18.930;2023-04-19T11:47:58;10.13;;;7.43;;
58137;SDS011;43955;47.362;18.930;2023-04-19T11:55:48;14.18;;;8.60;;
58137;SDS011;43955;47.362;18.930;2023-04-19T12:01:02;14.65;;;9.55;;
58137;SDS011;43955;47.362;18.930;2023-04-19T12:03:34;23.12;;;8.63;;
58137;SDS011;43955;47.362;18.930;2023-04-19T12:06:09;26.55;;;11.43;;
58137;SDS011;43955;47.362;18.930;2023-04-19T12:08:40;15.65;;;9.70;;
58137;SDS011;43955;47.362;18.930;2023-04-19T12:11:09;20.40;;;8.70;;
58137;SDS011;43955;47.362;18.930;2023-04-19T12:13:36;11.68;;;7.40;;
58137;SDS011;43955;47.362;18.930;2023-04-19T12:16:04;13.85;;;7.75;;
58137;SDS011;43955;47.362;18.930;2023-04-19T12:18:45;18.15;;;8.57;;
58137;SDS011;43955;47.362;18.930;2023-04-19T12:21:25;11.68;;;8.27;;
58137;SDS011;43955;47.362;18.930;2023-04-19T12:23:54;12.77;;;8.40;;
58137;SDS011;43955;47.362;18.930;2023-04-19T12:26:23;13.85;;;9.30;;
58137;SDS011;43955;47.362;18.930;2023-04-19T12:28:51;14.35;;;8.27;;
58137;SDS011;43955;47.362;18.930;2023-04-19T12:31:18;20.30;;;9.40;;
58137;SDS011;43955;47.362;18.930;2023-04-19T12:33:47;13.27;;;8.02;;
58137;SDS011;43955;47.362;18.930;2023-04-19T12:36:14;14.95;;;8.13;;
58137;SDS011;43955;47.362;18.930;2023-04-19T12:38:42;14.77;;;7.78;;
58137;SDS011;43955;47.362;18.930;2023-04-19T12:41:10;12.18;;;7.70;;
58137;SDS011;43955;47.362;18.930;2023-04-19T12:43:37;13.73;;;7.35;;
58137;SDS011;43955;47.362;18.930;2023-04-19T12:46:04;10.52;;;6.70;;
58137;SDS011;43955;47.362;18.930;2023-04-19T12:48:32;14.18;;;6.75;;
58137;SDS011;43955;47.362;18.930;2023-04-19T12:50:59;11.35;;;7.72;;
58137;SDS011;43955;47.362;18.930;2023-04-19T12:53:27;11.40;;;7.07;;
58137;SDS011;43955;47.362;18.930;2023-04-19T12:55:54;14.73;;;9.52;;
58137;SDS011;43955;47.362;18.930;2023-04-19T12:58:21;10.52;;;7.30;;
58137;SDS011;43955;47.362;18.930;2023-04-19T13:00:49;9.98;;;6.53;;
58137;SDS011;43955;47.362;18.930;2023-04-19T13:03:17;11.40;;;6.50;;
58137;SDS011;43955;47.362;18.930;2023-04-19T13:05:44;18.08;;;6.75;;
58137;SDS011;43955;47.362;18.930;2023-04-19T13:08:11;14.13;;;7.40;;
58137;SDS011;43955;47.362;18.930;2023-04-19T13:10:39;14.30;;;6.62;;
58137;SDS011;43955;47.362;18.930;2023-04-19T13:13:06;10.40;;;6.45;;
58137;SDS011;43955;47.362;18.930;2023-04-19T13:15:33;12.25;;;6.10;;
58137;SDS011;43955;47.362;18.930;2023-04-19T13:18:01;10.27;;;5.80;;
58137;SDS011;43955;47.362;18.930;2023-04-19T13:20:28;9.27;;;6.25;;
58137;SDS011;43955;47.362;18.930;2023-04-19T13:22:56;14.30;;;6.95;;
58137;SDS011;43955;47.362;18.930;2023-04-19T13:25:23;13.45;;;6.93;;
58137;SDS011;43955;47.362;18.930;2023-04-19T13:27:50;9.63;;;6.70;;
58137;SDS011;43955;47.362;18.930;2023-04-19T13:30:18;13.00;;;7.00;;
58137;SDS011;43955;47.362;18.930;2023-04-19T13:32:45;13.75;;;7.03;;
58137;SDS011;43955;47.362;18.930;2023-04-19T13:35:13;12.80;;;7.68;;
58137;SDS011;43955;47.362;18.930;2023-04-19T13:37:40;16.10;;;9.35;;
58137;SDS011;43955;47.362;18.930;2023-04-19T13:40:10;16.00;;;9.90;;
58137;SDS011;43955;47.362;18.930;2023-04-19T13:42:45;20.73;;;11.27;;
58137;SDS011;43955;47.362;18.930;2023-04-19T13:45:12;19.77;;;10.57;;
58137;SDS011;43955;47.362;18.930;2023-04-19T13:47:40;18.25;;;11.45;;
58137;SDS011;43955;47.362;18.930;2023-04-19T13:50:07;20.27;;;11.18;;
58137;SDS011;43955;47.362;18.930;2023-04-19T13:52:35;27.83;;;13.00;;
58137;SDS011;43955;47.362;18.930;2023-04-19T13:55:02;21.35;;;12.27;;
58137;SDS011;43955;47.362;18.930;2023-04-19T13:57:29;23.77;;;11.40;;
58137;SDS011;43955;47.362;18.930;2023-04-19T13:59:57;21.90;;;12.02;;
58137;SDS011;43955;47.362;18.930;2023-04-19T14:02:24;17.02;;;10.45;;
58137;SDS011;43955;47.362;18.930;2023-04-19T14:04:52;17.23;;;9.65;;
58137;SDS011;43955;47.362;18.930;2023-04-19T14:07:19;20.90;;;10.35;;
58137;SDS011;43955;47.362;18.930;2023-04-19T14:09:46;20.77;;;11.70;;
58137;SDS011;43955;47.362;18.930;2023-04-19T14:12:14;19.10;;;10.88;;
58137;SDS011;43955;47.362;18.930;2023-04-19T14:14:41;19.35;;;10.95;;
58137;SDS011;43955;47.362;18.930;2023-04-19T14:17:08;17.37;;;9.23;;
58137;SDS011;43955;47.362;18.930;2023-04-19T14:19:36;16.70;;;9.25;;
58137;SDS011;43955;47.362;18.930;2023-04-19T14:22:03;17.55;;;9.60;;
58137;SDS011;43955;47.362;18.930;2023-04-19T14:24:30;18.45;;;8.85;;
58137;SDS011;43955;47.362;18.930;2023-04-19T14:26:58;15.65;;;9.13;;
58137;SDS011;43955;47.362;18.930;2023-04-19T14:29:36;14.93;;;8.45;;
58137;SDS011;43955;47.362;18.930;2023-04-19T14:32:06;26.25;;;10.65;;
58137;SDS011;43955;47.362;18.930;2023-04-19T14:34:52;16.85;;;8.30;;
58137;SDS011;43955;47.362;18.930;2023-04-19T14:37:21;13.23;;;7.62;;
58137;SDS011;43955;47.362;18.930;2023-04-19T14:39:49;16.08;;;8.07;;
58137;SDS011;43955;47.362;18.930;2023-04-19T14:42:16;12.98;;;7.65;;
58137;SDS011;43955;47.362;18.930;2023-04-19T14:44:50;15.98;;;7.45;;
58137;SDS011;43955;47.362;18.930;2023-04-19T14:47:18;13.55;;;7.72;;
58137;SDS011;43955;47.362;18.930;2023-04-19T14:49:46;13.25;;;7.35;;
58137;SDS011;43955;47.362;18.930;2023-04-19T14:52:14;14.57;;;7.93;;
58137;SDS011;43955;47.362;18.930;2023-04-19T14:54:41;11.77;;;7.45;;
58137;SDS011;43955;47.362;18.930;2023-04-19T14:57:09;13.13;;;7.53;;
58137;SDS011;43955;47.362;18.930;2023-04-19T14:59:36;15.82;;;7.15;;
58137;SDS011;43955;47.362;18.930;2023-04-19T15:02:03;16.12;;;7.85;;
58137;SDS011;43955;47.362;18.930;2023-04-19T15:04:35;11.98;;;6.82;;
58137;SDS011;43955;47.362;18.930;2023-04-19T15:07:07;10.65;;;6.70;;
58137;SDS011;43955;47.362;18.930;2023-04-19T15:09:34;13.35;;;6.43;;